sensor_id;sensor_type;location;lat;lon;timestamp;pressure;altitude;pressure_sealevel;temperature;humidity
7441;BME280;29616;51.950;8.572;2023-04-10T00:01:34;100771.69;;;4.61;100.00
7441;BME280;29616;51.950;8.572;2023-04-10T00:04:05;100770.88;;;4.47;100.00
7441;BME280;29616;51.950;8.572;2023-04-10T00:06:34;100765.59;;;4.58;100.00
7441;BME280;29616;51.950;8.572;2023-04-10T00:09:04;100766.84;;;4.66;100.00
7441;BME280;29616;51.950;8.572;2023-04-10T00:11:33;100756.03;;;4.66;100.00
7441;BME280;29616;51.950;8.572;2023-04-10T00:14:02;100754.69;;;4.73;100.00
7441;BME280;29616;51.950;8.572;2023-04-10T00:16:32;100760.56;;;4.66;100.00
7441;BME280;29616;51.950;8.572;2023-04-10T00:19:00;100750.03;;;4.61;100.00
7441;BME280;29616;51.950;8.572;2023-04-10T00:21:31;100757.72;;;4.55;100.00
7441;BME280;29616;51.950;8.572;2023-04-10T00:23:59;100749.09;;;4.48;100.00
7441;BME280;29616;51.950;8.572;2023-04-10T00:26:29;100755.75;;;4.57;100.00
7441;BME280;29616;51.950;8.572;2023-04-10T00:28:59;100751.59;;;4.65;100.00
7441;BME280;29616;51.950;8.572;2023-04-10T00:31:29;100735.38;;;4.51;100.00
7441;BME280;29616;51.950;8.572;2023-04-10T00:33:58;100747.72;;;4.55;100.00
7441;BME280;29616;51.950;8.572;2023-04-10T00:36:28;100744.53;;;4.63;100.00
7441;BME280;29616;51.950;8.572;2023-04-10T00:38:58;100739.22;;;4.61;100.00
7441;BME280;29616;51.950;8.572;2023-04-10T00:41:29;100729.44;;;4.73;100.00
7441;BME280;29616;51.950;8.572;2023-04-10T00:44:00;100732.38;;;4.82;100.00
7441;BME280;29616;51.950;8.572;2023-04-10T00:46:31;100733.81;;;4.88;100.00
7441;BME280;29616;51.950;8.572;2023-04-10T00:49:02;100725.03;;;5.11;100.00
7441;BME280;29616;51.950;8.572;2023-04-10T00:51:33;100722.97;;;5.15;100.00
7441;BME280;29616;51.950;8.572;2023-04-10T00:54:03;100727.84;;;5.10;100.00
7441;BME280;29616;51.950;8.572;2023-04-10T00:56:34;100738.69;;;5.10;100.00
7441;BME280;29616;51.950;8.572;2023-04-10T00:59:03;100730.41;;;4.99;100.00
7441;BME280;29616;51.950;8.572;2023-04-10T01:01:34;100731.06;;;5.02;100.00
7441;BME280;29616;51.950;8.572;2023-04-10T01:04:03;100712.97;;;5.03;100.00
7441;BME280;29616;51.950;8.572;2023-04-10T01:06:51;100724.94;;;5.13;100.00
7441;BME280;29616;51.950;8.572;2023-04-10T01:09:36;100727.97;;;5.08;100.00
7441;BME280;29616;51.950;8.572;2023-04-10T01:12:32;100725.69;;;5.15;100.00
7441;BME280;29616;51.950;8.572;2023-04-10T01:15:11;100707.91;;;5.11;100.00
7441;BME280;29616;51.950;8.572;2023-04-10T01:17:51;100704.22;;;5.12;100.00
7441;BME280;29616;51.950;8.572;2023-04-10T01:20:24;100712.91;;;5.17;100.00
7441;BME280;29616;51.950;8.572;2023-04-10T01:23:30;100716.81;;;5.13;100.00
7441;BME280;29616;51.950;8.572;2023-04-10T01:26:03;100710.28;;;5.03;100.00
7441;BME280;29616;51.950;8.572;2023-04-10T01:28:51;100716.28;;;5.20;100.00
7441;BME280;29616;51.950;8.572;2023-04-10T01:31:30;100718.13;;;5.20;100.00
7441;BME280;29616;51.950;8.572;2023-04-10T01:34:06;100721.59;;;5.22;100.00
7441;BME280;29616;51.950;8.572;2023-04-10T01:36:43;100725.91;;;5.24;100.00
7441;BME280;29616;51.950;8.572;2023-04-10T01:39:18;100718.25;;;5.31;100.00
7441;BME280;29616;51.950;8.572;2023-04-10T01:41:50;100726.59;;;5.28;100.00
7441;BME280;29616;51.950;8.572;2023-04-10T01:44:28;100704.63;;;5.06;100.00
7441;BME280;29616;51.950;8.572;2023-04-10T01:46:59;100721.88;;;5.05;100.00
7441;BME280;29616;51.950;8.572;2023-04-10T01:49:30;100724.78;;;5.02;100.00
7441;BME280;29616;51.950;8.572;2023-04-10T01:52:02;100715.78;;;5.01;100.00
7441;BME280;29616;51.950;8.572;2023-04-10T01:54:34;100721.34;;;5.12;100.00
7441;BME280;29616;51.950;8.572;2023-04-10T01:57:05;100713.78;;;5.17;100.00
7441;BME280;29616;51.950;8.572;2023-04-10T01:59:44;100698.91;;;5.10;100.00
7441;BME280;29616;51.950;8.572;2023-04-10T02:02:14;100701.81;;;5.07;100.00
7441;BME280;29616;51.950;8.572;2023-04-10T02:04:43;100697.50;;;5.05;100.00
7441;BME280;29616;51.950;8.572;2023-04-10T02:07:21;100704.84;;;5.03;100.00
7441;BME280;29616;51.950;8.572;2023-04-10T02:09:57;100699.63;;;5.00;100.00
7441;BME280;29616;51.950;8.572;2023-04-10T02:12:30;100692.47;;;4.99;100.00
7441;BME280;29616;51.950;8.572;2023-04-10T02:15:04;100683.94;;;5.05;100.00
7441;BME280;29616;51.950;8.572;2023-04-10T02:17:35;100686.34;;;5.22;100.00
7441;BME280;29616;51.950;8.572;2023-04-10T02:20:08;100686.69;;;5.30;100.00
7441;BME280;29616;51.950;8.572;2023-04-10T02:22:40;100655.72;;;5.34;100.00
7441;BME280;29616;51.950;8.572;2023-04-10T02:25:10;100672.72;;;5.36;100.00
7441;BME280;29616;51.950;8.572;2023-04-10T02:27:41;100672.94;;;5.33;100.00
7441;BME280;29616;51.950;8.572;2023-04-10T02:30:13;100666.13;;;5.40;100.00
7441;BME280;29616;51.950;8.572;2023-04-10T02:32:43;100651.38;;;5.31;100.00
7441;BME280;29616;51.950;8.572;2023-04-10T02:35:11;100663.09;;;5.44;100.00
7441;BME280;29616;51.950;8.572;2023-04-10T02:37:41;100662.00;;;5.60;100.00
7441;BME280;29616;51.950;8.572;2023-04-10T02:40:11;100668.09;;;5.63;100.00
7441;BME280;29616;51.950;8.572;2023-04-10T02:42:51;100660.47;;;5.43;100.00
7441;BME280;29616;51.950;8.572;2023-04-10T02:45:22;100657.34;;;5.49;100.00
7441;BME280;29616;51.950;8.572;2023-04-10T02:47:50;100667.22;;;5.63;100.00
7441;BME280;29616;51.950;8.572;2023-04-10T02:50:19;100661.78;;;5.75;100.00
7441;BME280;29616;51.950;8.572;2023-04-10T02:52:48;100669.09;;;5.75;100.00
7441;BME280;29616;51.950;8.572;2023-04-10T02:55:18;100664.81;;;5.83;100.00
7441;BME280;29616;51.950;8.572;2023-04-10T02:57:47;100675.28;;;5.89;100.00
7441;BME280;29616;51.950;8.572;2023-04-10T03:00:17;100666.41;;;5.87;100.00
7441;BME280;29616;51.950;8.572;2023-04-10T03:03:04;100656.03;;;5.67;100.00
7441;BME280;29616;51.950;8.572;2023-04-10T03:05:42;100656.38;;;5.63;100.00
7441;BME280;29616;51.950;8.572;2023-04-10T03:08:17;100657.25;;;5.50;100.00
7441;BME280;29616;51.950;8.572;2023-04-10T03:10:46;100633.59;;;5.40;100.00
7441;BME280;29616;51.950;8.572;2023-04-10T03:13:17;100658.09;;;5.51;100.00
7441;BME280;29616;51.950;8.572;2023-04-10T03:15:47;100653.88;;;5.47;100.00
7441;BME280;29616;51.950;8.572;2023-04-10T03:18:18;100645.53;;;5.50;100.00
7441;BME280;29616;51.950;8.572;2023-04-10T03:20:49;100651.91;;;5.49;100.00
7441;BME280;29616;51.950;8.572;2023-04-10T03:23:20;100638.91;;;5.41;100.00
7441;BME280;29616;51.950;8.572;2023-04-10T03:25:49;100651.03;;;5.36;100.00
7441;BME280;29616;51.950;8.572;2023-04-10T03:28:24;100653.94;;;5.20;100.00
7441;BME280;29616;51.950;8.572;2023-04-10T03:30:53;100652.19;;;5.07;100.00
7441;BME280;29616;51.950;8.572;2023-04-10T03:33:24;100660.88;;;5.12;100.00
7441;BME280;29616;51.950;8.572;2023-04-10T03:35:54;100652.19;;;5.07;100.00
7441;BME280;29616;51.950;8.572;2023-04-10T03:38:25;100642.88;;;5.11;100.00
7441;BME280;29616;51.950;8.572;2023-04-10T03:40:53;100643.31;;;5.05;100.00
7441;BME280;29616;51.950;8.572;2023-04-10T03:43:25;100633.78;;;5.12;100.00
7441;BME280;29616;51.950;8.572;2023-04-10T03:45:54;100644.19;;;5.18;100.00
7441;BME280;29616;51.950;8.572;2023-04-10T03:48:25;100628.06;;;5.16;100.00
7441;BME280;29616;51.950;8.572;2023-04-10T03:50:54;100633.34;;;5.18;100.00
7441;BME280;29616;51.950;8.572;2023-04-10T03:53:23;100625.97;;;5.20;100.00
7441;BME280;29616;51.950;8.572;2023-04-10T03:55:53;100623.81;;;5.12;100.00
7441;BME280;29616;51.950;8.572;2023-04-10T03:58:24;100637.22;;;5.14;100.00
7441;BME280;29616;51.950;8.572;2023-04-10T04:00:54;100634.84;;;5.22;100.00
7441;BME280;29616;51.950;8.572;2023-04-10T04:03:32;100631.38;;;5.07;100.00
7441;BME280;29616;51.950;8.572;2023-04-10T04:06:22;100624.66;;;5.00;100.00
7441;BME280;29616;51.950;8.572;2023-04-10T04:09:11;100631.91;;;5.00;100.00
7441;BME280;29616;51.950;8.572;2023-04-10T04:11:59;100636.09;;;4.78;100.00
7441;BME280;29616;51.950;8.572;2023-04-10T04:14:56;100621.28;;;4.57;100.00
7441;BME280;29616;51.950;8.572;2023-04-10T04:17:44;100616.06;;;4.54;100.00
7441;BME280;29616;51.950;8.572;2023-04-10T04:20:50;100628.63;;;4.55;100.00
7441;BME280;29616;51.950;8.572;2023-04-10T04:23:33;100635.19;;;4.65;100.00
7441;BME280;29616;51.950;8.572;2023-04-10T04:26:10;100621.75;;;4.76;100.00
7441;BME280;29616;51.950;8.572;2023-04-10T04:29:13;100613.72;;;4.62;100.00
7441;BME280;29616;51.950;8.572;2023-04-10T04:31:52;100611.16;;;4.47;100.00
7441;BME280;29616;51.950;8.572;2023-04-10T04:34:40;100620.59;;;4.54;100.00
7441;BME280;29616;51.950;8.572;2023-04-10T04:37:23;100612.44;;;4.68;100.00
7441;BME280;29616;51.950;8.572;2023-04-10T04:40:14;100629.31;;;4.71;100.00
7441;BME280;29616;51.950;8.572;2023-04-10T04:42:57;100637.44;;;4.71;100.00
7441;BME280;29616;51.950;8.572;2023-04-10T04:45:55;100628.50;;;4.83;100.00
7441;BME280;29616;51.950;8.572;2023-04-10T04:48:46;100635.63;;;4.72;100.00
7441;BME280;29616;51.950;8.572;2023-04-10T04:51:29;100633.44;;;4.64;100.00
7441;BME280;29616;51.950;8.572;2023-04-10T04:54:05;100635.09;;;4.79;100.00
7441;BME280;29616;51.950;8.572;2023-04-10T04:56:47;100634.72;;;4.98;100.00
7441;BME280;29616;51.950;8.572;2023-04-10T04:59:49;100630.50;;;5.07;100.00
7441;BME280;29616;51.950;8.572;2023-04-10T05:02:37;100633.22;;;5.19;100.00
7441;BME280;29616;51.950;8.572;2023-04-10T05:05:25;100633.56;;;5.15;100.00
7441;BME280;29616;51.950;8.572;2023-04-10T05:08:15;100630.97;;;5.26;100.00
7441;BME280;29616;51.950;8.572;2023-04-10T05:11:05;100643.38;;;5.55;100.00
7441;BME280;29616;51.950;8.572;2023-04-10T05:13:59;100631.63;;;5.67;100.00
7441;BME280;29616;51.950;8.572;2023-04-10T05:16:51;100629.47;;;5.72;100.00
7441;BME280;29616;51.950;8.572;2023-04-10T05:19:40;100630.38;;;5.85;100.00
7441;BME280;29616;51.950;8.572;2023-04-10T05:22:45;100630.84;;;6.16;100.00
7441;BME280;29616;51.950;8.572;2023-04-10T05:25:34;100631.94;;;6.49;100.00
7441;BME280;29616;51.950;8.572;2023-04-10T05:28:22;100630.56;;;6.91;100.00
7441;BME280;29616;51.950;8.572;2023-04-10T05:31:21;100632.38;;;7.14;100.00
7441;BME280;29616;51.950;8.572;2023-04-10T05:34:06;100626.50;;;7.31;100.00
7441;BME280;29616;51.950;8.572;2023-04-10T05:36:55;100633.22;;;7.72;100.00
7441;BME280;29616;51.950;8.572;2023-04-10T05:39:43;100627.09;;;8.03;100.00
7441;BME280;29616;51.950;8.572;2023-04-10T05:42:39;100628.56;;;8.18;100.00
7441;BME280;29616;51.950;8.572;2023-04-10T05:45:19;100627.94;;;8.37;100.00
7441;BME280;29616;51.950;8.572;2023-04-10T05:48:18;100625.84;;;8.83;100.00
7441;BME280;29616;51.950;8.572;2023-04-10T05:51:06;100623.03;;;9.26;100.00
7441;BME280;29616;51.950;8.572;2023-04-10T05:53:51;100614.69;;;9.39;100.00
7441;BME280;29616;51.950;8.572;2023-04-10T05:56:27;100612.72;;;10.01;100.00
7441;BME280;29616;51.950;8.572;2023-04-10T05:59:17;100612.03;;;10.09;100.00
7441;BME280;29616;51.950;8.572;2023-04-10T06:02:18;100618.47;;;10.28;100.00
7441;BME280;29616;51.950;8.572;2023-04-10T06:04:50;100605.00;;;10.46;100.00
7441;BME280;29616;51.950;8.572;2023-04-10T06:07:18;100605.94;;;11.33;100.00
7441;BME280;29616;51.950;8.572;2023-04-10T06:09:48;100613.84;;;12.11;100.00
7441;BME280;29616;51.950;8.572;2023-04-10T06:12:19;100599.44;;;12.09;100.00
7441;BME280;29616;51.950;8.572;2023-04-10T06:14:49;100603.56;;;12.50;100.00
7441;BME280;29616;51.950;8.572;2023-04-10T06:17:22;100592.88;;;12.29;100.00
7441;BME280;29616;51.950;8.572;2023-04-10T06:19:53;100596.91;;;12.52;100.00
7441;BME280;29616;51.950;8.572;2023-04-10T06:22:25;100601.44;;;12.44;100.00
7441;BME280;29616;51.950;8.572;2023-04-10T06:24:56;100594.34;;;12.68;100.00
7441;BME280;29616;51.950;8.572;2023-04-10T06:27:27;100590.28;;;12.72;100.00
7441;BME280;29616;51.950;8.572;2023-04-10T06:29:55;100588.69;;;12.52;100.00
7441;BME280;29616;51.950;8.572;2023-04-10T06:32:27;100579.38;;;12.45;100.00
7441;BME280;29616;51.950;8.572;2023-04-10T06:34:57;100585.47;;;12.30;100.00
7441;BME280;29616;51.950;8.572;2023-04-10T06:37:27;100584.28;;;12.42;100.00
7441;BME280;29616;51.950;8.572;2023-04-10T06:40:04;100585.16;;;12.60;100.00
7441;BME280;29616;51.950;8.572;2023-04-10T06:42:34;100576.34;;;12.66;100.00
7441;BME280;29616;51.950;8.572;2023-04-10T06:45:27;100582.66;;;13.11;100.00
7441;BME280;29616;51.950;8.572;2023-04-10T06:47:58;100564.91;;;13.23;100.00
7441;BME280;29616;51.950;8.572;2023-04-10T06:50:28;100570.53;;;13.65;100.00
7441;BME280;29616;51.950;8.572;2023-04-10T06:52:59;100574.53;;;13.71;100.00
7441;BME280;29616;51.950;8.572;2023-04-10T06:55:28;100569.19;;;14.71;100.00
7441;BME280;29616;51.950;8.572;2023-04-10T06:57:56;100556.53;;;15.18;100.00
7441;BME280;29616;51.950;8.572;2023-04-10T07:00:25;100567.50;;;14.94;100.00
7441;BME280;29616;51.950;8.572;2023-04-10T07:02:54;100579.41;;;15.99;100.00
7441;BME280;29616;51.950;8.572;2023-04-10T07:05:25;100577.75;;;16.21;99.68
7441;BME280;29616;51.950;8.572;2023-04-10T07:07:55;100571.22;;;16.22;98.45
7441;BME280;29616;51.950;8.572;2023-04-10T07:10:24;100565.47;;;17.69;91.85
7441;BME280;29616;51.950;8.572;2023-04-10T07:12:54;100562.91;;;18.26;82.36
7441;BME280;29616;51.950;8.572;2023-04-10T07:15:24;100565.38;;;17.77;80.68
7441;BME280;29616;51.950;8.572;2023-04-10T07:17:53;100574.25;;;17.50;78.45
7441;BME280;29616;51.950;8.572;2023-04-10T07:20:26;100564.00;;;16.90;76.42
7441;BME280;29616;51.950;8.572;2023-04-10T07:22:56;100568.41;;;17.68;78.04
7441;BME280;29616;51.950;8.572;2023-04-10T07:25:25;100571.75;;;17.63;72.41
7441;BME280;29616;51.950;8.572;2023-04-10T07:27:55;100575.88;;;17.82;74.13
7441;BME280;29616;51.950;8.572;2023-04-10T07:30:24;100567.06;;;17.64;70.89
7441;BME280;29616;51.950;8.572;2023-04-10T07:32:54;100563.34;;;17.48;75.28
7441;BME280;29616;51.950;8.572;2023-04-10T07:35:23;100561.72;;;17.62;70.25
7441;BME280;29616;51.950;8.572;2023-04-10T07:37:55;100559.66;;;17.19;71.57
7441;BME280;29616;51.950;8.572;2023-04-10T07:40:24;100553.16;;;17.34;71.32
7441;BME280;29616;51.950;8.572;2023-04-10T07:42:53;100551.91;;;17.14;69.23
7441;BME280;29616;51.950;8.572;2023-04-10T07:45:22;100554.19;;;17.33;72.18
7441;BME280;29616;51.950;8.572;2023-04-10T07:47:52;100560.94;;;17.31;71.28
7441;BME280;29616;51.950;8.572;2023-04-10T07:50:20;100561.31;;;18.02;72.63
7441;BME280;29616;51.950;8.572;2023-04-10T07:52:50;100538.97;;;17.89;72.99
7441;BME280;29616;51.950;8.572;2023-04-10T07:55:21;100535.06;;;17.69;66.90
7441;BME280;29616;51.950;8.572;2023-04-10T07:57:50;100541.63;;;17.68;66.11
7441;BME280;29616;51.950;8.572;2023-04-10T08:00:20;100542.78;;;17.74;68.65
7441;BME280;29616;51.950;8.572;2023-04-10T08:02:50;100522.72;;;17.57;67.17
7441;BME280;29616;51.950;8.572;2023-04-10T08:05:19;100529.44;;;17.77;63.96
7441;BME280;29616;51.950;8.572;2023-04-10T08:07:49;100526.56;;;17.71;64.77
7441;BME280;29616;51.950;8.572;2023-04-10T08:10:20;100509.97;;;17.56;63.27
7441;BME280;29616;51.950;8.572;2023-04-10T08:12:51;100522.56;;;18.32;62.27
7441;BME280;29616;51.950;8.572;2023-04-10T08:15:21;100511.09;;;18.64;63.90
7441;BME280;29616;51.950;8.572;2023-04-10T08:17:50;100484.22;;;19.00;60.05
7441;BME280;29616;51.950;8.572;2023-04-10T08:20:20;100510.94;;;18.51;60.78
7441;BME280;29616;51.950;8.572;2023-04-10T08:22:49;100488.91;;;18.28;57.86
7441;BME280;29616;51.950;8.572;2023-04-10T08:25:21;100487.00;;;17.99;59.66
7441;BME280;29616;51.950;8.572;2023-04-10T08:27:50;100488.44;;;18.25;61.75
7441;BME280;29616;51.950;8.572;2023-04-10T08:30:18;100488.22;;;18.76;58.55
7441;BME280;29616;51.950;8.572;2023-04-10T08:32:48;100502.25;;;18.54;61.62
7441;BME280;29616;51.950;8.572;2023-04-10T08:35:18;100488.44;;;18.96;59.00
7441;BME280;29616;51.950;8.572;2023-04-10T08:37:48;100479.97;;;18.62;60.57
7441;BME280;29616;51.950;8.572;2023-04-10T08:40:40;100484.84;;;18.45;59.50
7441;BME280;29616;51.950;8.572;2023-04-10T08:43:12;100477.88;;;18.64;59.62
7441;BME280;29616;51.950;8.572;2023-04-10T08:45:42;100482.38;;;19.07;59.03
7441;BME280;29616;51.950;8.572;2023-04-10T08:48:15;100463.09;;;19.20;58.79
7441;BME280;29616;51.950;8.572;2023-04-10T08:50:46;100470.75;;;19.40;56.77
7441;BME280;29616;51.950;8.572;2023-04-10T08:53:14;100471.88;;;19.24;57.62
7441;BME280;29616;51.950;8.572;2023-04-10T08:55:46;100465.91;;;19.48;56.81
7441;BME280;29616;51.950;8.572;2023-04-10T08:58:16;100444.53;;;18.36;58.49
7441;BME280;29616;51.950;8.572;2023-04-10T09:00:45;100465.97;;;18.34;59.29
7441;BME280;29616;51.950;8.572;2023-04-10T09:03:15;100467.91;;;18.48;60.37
7441;BME280;29616;51.950;8.572;2023-04-10T09:05:45;100452.91;;;18.43;60.63
7441;BME280;29616;51.950;8.572;2023-04-10T09:08:15;100445.31;;;18.87;60.01
7441;BME280;29616;51.950;8.572;2023-04-10T09:10:46;100430.19;;;19.11;60.43
7441;BME280;29616;51.950;8.572;2023-04-10T09:13:15;100444.91;;;18.48;60.46
7441;BME280;29616;51.950;8.572;2023-04-10T09:15:57;100440.84;;;18.86;58.86
7441;BME280;29616;51.950;8.572;2023-04-10T09:18:41;100410.03;;;18.96;57.65
7441;BME280;29616;51.950;8.572;2023-04-10T09:21:11;100426.66;;;19.45;59.50
7441;BME280;29616;51.950;8.572;2023-04-10T09:23:42;100427.41;;;19.60;58.34
7441;BME280;29616;51.950;8.572;2023-04-10T09:26:30;100414.66;;;20.06;55.87
7441;BME280;29616;51.950;8.572;2023-04-10T09:29:02;100406.84;;;19.82;56.28
7441;BME280;29616;51.950;8.572;2023-04-10T09:31:33;100409.72;;;20.02;54.59
7441;BME280;29616;51.950;8.572;2023-04-10T09:34:10;100404.72;;;19.84;55.41
7441;BME280;29616;51.950;8.572;2023-04-10T09:36:41;100395.72;;;19.75;54.63
7441;BME280;29616;51.950;8.572;2023-04-10T09:39:11;100394.69;;;19.83;54.54
7441;BME280;29616;51.950;8.572;2023-04-10T09:41:53;100386.66;;;20.55;55.42
7441;BME280;29616;51.950;8.572;2023-04-10T09:44:29;100374.38;;;20.23;53.93
7441;BME280;29616;51.950;8.572;2023-04-10T09:46:58;100372.38;;;20.65;52.68
7441;BME280;29616;51.950;8.572;2023-04-10T09:49:27;100382.19;;;20.07;53.50
7441;BME280;29616;51.950;8.572;2023-04-10T09:51:55;100375.13;;;20.51;50.90
7441;BME280;29616;51.950;8.572;2023-04-10T09:54:34;100380.88;;;19.89;52.20
7441;BME280;29616;51.950;8.572;2023-04-10T09:57:07;100374.56;;;20.15;52.61
7441;BME280;29616;51.950;8.572;2023-04-10T09:59:38;100370.88;;;20.02;52.74
7441;BME280;29616;51.950;8.572;2023-04-10T10:02:11;100365.31;;;19.54;53.50
7441;BME280;29616;51.950;8.572;2023-04-10T10:04:45;100351.63;;;19.87;51.96
7441;BME280;29616;51.950;8.572;2023-04-10T10:07:16;100350.97;;;20.39;51.28
7441;BME280;29616;51.950;8.572;2023-04-10T10:09:47;100333.69;;;20.43;50.11
7441;BME280;29616;51.950;8.572;2023-04-10T10:12:23;100332.88;;;20.76;49.55
7441;BME280;29616;51.950;8.572;2023-04-10T10:14:59;100323.44;;;20.37;47.23
7441;BME280;29616;51.950;8.572;2023-04-10T10:17:38;100331.16;;;20.75;46.21
7441;BME280;29616;51.950;8.572;2023-04-10T10:20:17;100282.03;;;20.75;45.93
7441;BME280;29616;51.950;8.572;2023-04-10T10:22:49;100314.47;;;20.48;46.49
7441;BME280;29616;51.950;8.572;2023-04-10T10:25:19;100301.25;;;20.83;45.75
7441;BME280;29616;51.950;8.572;2023-04-10T10:27:51;100319.59;;;21.30;46.31
7441;BME280;29616;51.950;8.572;2023-04-10T10:30:22;100303.16;;;21.09;45.01
7441;BME280;29616;51.950;8.572;2023-04-10T10:32:57;100296.53;;;20.44;46.29
7441;BME280;29616;51.950;8.572;2023-04-10T10:35:26;100297.81;;;20.68;45.84
7441;BME280;29616;51.950;8.572;2023-04-10T10:37:58;100302.28;;;20.63;45.61
7441;BME280;29616;51.950;8.572;2023-04-10T10:40:32;100301.44;;;20.82;45.62
7441;BME280;29616;51.950;8.572;2023-04-10T10:43:15;100297.59;;;21.22;45.48
7441;BME280;29616;51.950;8.572;2023-04-10T10:45:51;100296.72;;;21.28;44.63
7441;BME280;29616;51.950;8.572;2023-04-10T10:48:22;100294.25;;;21.64;44.93
7441;BME280;29616;51.950;8.572;2023-04-10T10:50:52;100278.53;;;21.32;43.29
7441;BME280;29616;51.950;8.572;2023-04-10T10:53:34;100289.59;;;21.52;44.05
7441;BME280;29616;51.950;8.572;2023-04-10T10:56:33;100287.78;;;21.06;44.15
7441;BME280;29616;51.950;8.572;2023-04-10T10:59:03;100267.56;;;21.50;43.33
7441;BME280;29616;51.950;8.572;2023-04-10T11:01:31;100273.34;;;21.55;44.27
7441;BME280;29616;51.950;8.572;2023-04-10T11:04:00;100266.13;;;21.86;43.67
7441;BME280;29616;51.950;8.572;2023-04-10T11:06:50;100275.69;;;22.03;42.38
7441;BME280;29616;51.950;8.572;2023-04-10T11:09:50;100270.06;;;21.71;43.42
7441;BME280;29616;51.950;8.572;2023-04-10T11:12:21;100256.28;;;21.32;43.88
7441;BME280;29616;51.950;8.572;2023-04-10T11:14:58;100242.19;;;21.34;42.97
7441;BME280;29616;51.950;8.572;2023-04-10T11:17:49;100228.91;;;21.36;44.03
7441;BME280;29616;51.950;8.572;2023-04-10T11:20:20;100231.25;;;21.39;44.20
7441;BME280;29616;51.950;8.572;2023-04-10T11:23:08;100239.91;;;21.62;43.56
7441;BME280;29616;51.950;8.572;2023-04-10T11:25:47;100234.47;;;21.42;44.55
7441;BME280;29616;51.950;8.572;2023-04-10T11:28:36;100212.31;;;21.03;44.72
7441;BME280;29616;51.950;8.572;2023-04-10T11:31:15;100205.31;;;20.74;46.29
7441;BME280;29616;51.950;8.572;2023-04-10T11:33:47;100208.53;;;20.71;46.43
7441;BME280;29616;51.950;8.572;2023-04-10T11:36:16;100203.44;;;20.62;46.09
7441;BME280;29616;51.950;8.572;2023-04-10T11:38:55;100202.53;;;20.74;46.87
7441;BME280;29616;51.950;8.572;2023-04-10T11:41:30;100183.09;;;20.74;46.34
7441;BME280;29616;51.950;8.572;2023-04-10T11:44:04;100187.78;;;20.87;46.01
7441;BME280;29616;51.950;8.572;2023-04-10T11:46:37;100191.34;;;21.13;44.95
7441;BME280;29616;51.950;8.572;2023-04-10T11:49:08;100188.44;;;20.89;45.40
7441;BME280;29616;51.950;8.572;2023-04-10T11:51:39;100185.03;;;20.74;44.72
7441;BME280;29616;51.950;8.572;2023-04-10T11:54:17;100180.75;;;20.78;46.49
7441;BME280;29616;51.950;8.572;2023-04-10T11:56:57;100171.97;;;20.87;45.83
7441;BME280;29616;51.950;8.572;2023-04-10T11:59:31;100170.41;;;21.18;45.14
7441;BME280;29616;51.950;8.572;2023-04-10T12:02:07;100157.56;;;21.17;45.19
7441;BME280;29616;51.950;8.572;2023-04-10T12:04:37;100159.31;;;21.11;45.23
7441;BME280;29616;51.950;8.572;2023-04-10T12:07:06;100152.25;;;21.08;45.13
7441;BME280;29616;51.950;8.572;2023-04-10T12:09:37;100149.38;;;21.35;44.44
7441;BME280;29616;51.950;8.572;2023-04-10T12:12:07;100132.38;;;21.05;44.84
7441;BME280;29616;51.950;8.572;2023-04-10T12:14:41;100135.66;;;20.89;44.44
7441;BME280;29616;51.950;8.572;2023-04-10T12:17:11;100130.16;;;21.33;43.46
7441;BME280;29616;51.950;8.572;2023-04-10T12:19:40;100122.00;;;21.32;44.54
7441;BME280;29616;51.950;8.572;2023-04-10T12:22:10;100126.34;;;21.59;44.61
7441;BME280;29616;51.950;8.572;2023-04-10T12:24:42;100119.38;;;21.43;42.53
7441;BME280;29616;51.950;8.572;2023-04-10T12:27:16;100121.63;;;21.22;43.30
7441;BME280;29616;51.950;8.572;2023-04-10T12:29:48;100098.53;;;21.28;42.59
7441;BME280;29616;51.950;8.572;2023-04-10T12:32:19;100109.47;;;21.60;42.39
7441;BME280;29616;51.950;8.572;2023-04-10T12:34:51;100110.00;;;21.75;41.91
7441;BME280;29616;51.950;8.572;2023-04-10T12:37:21;100108.38;;;22.42;41.52
7441;BME280;29616;51.950;8.572;2023-04-10T12:39:52;100100.47;;;22.64;40.61
7441;BME280;29616;51.950;8.572;2023-04-10T12:42:25;100081.97;;;22.69;38.81
7441;BME280;29616;51.950;8.572;2023-04-10T12:44:56;100095.69;;;22.46;38.75
7441;BME280;29616;51.950;8.572;2023-04-10T12:47:28;100089.13;;;22.59;39.02
7441;BME280;29616;51.950;8.572;2023-04-10T12:50:05;100083.94;;;22.44;39.44
7441;BME280;29616;51.950;8.572;2023-04-10T12:52:35;100080.81;;;22.95;39.02
7441;BME280;29616;51.950;8.572;2023-04-10T12:55:11;100080.84;;;22.52;39.31
7441;BME280;29616;51.950;8.572;2023-04-10T12:57:43;100068.03;;;22.08;39.22
7441;BME280;29616;51.950;8.572;2023-04-10T13:00:15;100066.56;;;21.74;39.37
7441;BME280;29616;51.950;8.572;2023-04-10T13:02:47;100051.44;;;21.39;39.44
7441;BME280;29616;51.950;8.572;2023-04-10T13:05:17;100046.25;;;21.43;39.62
7441;BME280;29616;51.950;8.572;2023-04-10T13:07:48;100046.63;;;21.77;39.50
7441;BME280;29616;51.950;8.572;2023-04-10T13:10:20;100037.13;;;22.16;39.84
7441;BME280;29616;51.950;8.572;2023-04-10T13:12:50;100051.66;;;22.37;38.93
7441;BME280;29616;51.950;8.572;2023-04-10T13:15:21;100029.78;;;22.22;38.86
7441;BME280;29616;51.950;8.572;2023-04-10T13:17:52;100027.88;;;22.41;38.60
7441;BME280;29616;51.950;8.572;2023-04-10T13:20:22;100026.94;;;22.65;38.05
7441;BME280;29616;51.950;8.572;2023-04-10T13:22:50;100016.31;;;23.10;37.03
7441;BME280;29616;51.950;8.572;2023-04-10T13:25:21;100001.94;;;23.24;38.04
7441;BME280;29616;51.950;8.572;2023-04-10T13:27:51;99999.88;;;23.49;37.67
7441;BME280;29616;51.950;8.572;2023-04-10T13:30:21;100000.44;;;23.40;37.04
7441;BME280;29616;51.950;8.572;2023-04-10T13:32:51;99995.97;;;23.50;37.50
7441;BME280;29616;51.950;8.572;2023-04-10T13:35:21;99987.50;;;23.57;37.44
7441;BME280;29616;51.950;8.572;2023-04-10T13:37:49;99986.19;;;24.41;36.16
7441;BME280;29616;51.950;8.572;2023-04-10T13:40:22;99976.72;;;23.95;36.13